Time;durP1;ratioP1;P1;durP2;ratioP2;P2;SDS_P1;SDS_P2;PMS_P1;PMS_P2;Temp;Humidity;BMP_temperature;BMP_pressure;BME280_temperature;BME280_humidity;BME280_pressure;Samples;Min_cycle;Max_cycle;Signal;HPM_P1;HPM_P2
2023/05/30 00:01:48;;;;;;;21.77;7.27;;;9.70;83.30;;;;;;5015791;28;20734;-86
2023/05/30 00:04:14;;;;;;;21.80;8.23;;;9.70;83.10;;;;;;5017941;28;20220;-86
2023/05/30 00:06:39;;;;;;;24.77;9.20;;;9.80;83.10;;;;;;5017489;28;20173;-86
2023/05/30 00:09:31;;;;;;;16.53;7.50;;;9.80;83.30;;;;;;5017138;28;20198;-86
2023/05/30 00:12:35;;;;;;;18.33;7.43;;;9.70;83.60;;;;;;5015350;28;20683;-86
2023/05/30 00:15:38;;;;;;;;;;;;;;;;;;;;;
2023/05/30 00:18:05;;;;;;;21.80;8.13;;;9.70;83.50;;;;;;5017237;28;20161;-85
2023/05/30 00:20:32;;;;;;;21.87;7.40;;;9.70;83.50;;;;;;5014972;28;20604;-87
2023/05/30 00:22:58;;;;;;;22.50;7.70;;;9.70;83.80;;;;;;5015053;28;20209;-86
2023/05/30 00:25:24;;;;;;;17.43;7.40;;;9.60;83.80;;;;;;5015730;28;20204;-86
2023/05/30 00:27:50;;;;;;;17.03;7.57;;;9.50;83.80;;;;;;5015330;28;20206;-86
2023/05/30 00:30:16;;;;;;;19.07;9.57;;;9.60;83.50;;;;;;5014689;28;20589;-86
2023/05/30 00:32:45;;;;;;;24.47;8.33;;;9.60;83.40;;;;;;5014648;28;20247;-86
2023/05/30 00:35:10;;;;;;;19.37;7.77;;;9.70;83.50;;;;;;5015044;28;20184;-87
2023/05/30 00:37:36;;;;;;;17.73;8.60;;;9.70;83.30;;;;;;5016979;28;20628;-87
2023/05/30 00:40:02;;;;;;;19.30;9.10;;;9.60;83.00;;;;;;5014686;28;20197;-87
2023/05/30 00:42:27;;;;;;;26.73;9.10;;;9.60;83.10;;;;;;5016302;28;20193;-88
2023/05/30 00:44:53;;;;;;;23.10;7.60;;;9.60;83.20;;;;;;5016287;28;20170;-87
2023/05/30 00:47:19;;;;;;;17.37;7.87;;;9.50;83.20;;;;;;5015195;28;20177;-87
2023/05/30 00:49:45;;;;;;;17.40;8.00;;;9.50;83.10;;;;;;5014490;28;20180;-87
2023/05/30 00:52:12;;;;;;;17.70;8.13;;;9.40;83.60;;;;;;5014084;28;20546;-87
2023/05/30 00:54:43;;;;;;;17.17;7.73;;;9.50;83.80;;;;;;5014177;28;20173;-87
2023/05/30 00:57:09;;;;;;;20.77;7.57;;;9.40;83.70;;;;;;5014146;28;20691;-87
2023/05/30 00:59:35;;;;;;;22.37;8.23;;;9.40;83.60;;;;;;5014163;28;20685;-87
2023/05/30 01:02:01;;;;;;;26.80;18.80;;;9.40;84.10;;;;;;5013764;28;20280;-87
2023/05/30 01:04:26;;;;;;;26.10;20.17;;;9.40;84.10;;;;;;5014162;28;20173;-86
2023/05/30 01:06:53;;;;;;;27.77;19.27;;;9.50;83.80;;;;;;5014048;28;20170;-87
2023/05/30 01:09:18;;;;;;;28.47;21.53;;;9.40;83.80;;;;;;5014023;28;20220;-87
2023/05/30 01:12:03;;;;;;;22.60;17.80;;;9.40;83.50;;;;;;5013835;28;20562;-87
2023/05/30 01:14:43;;;;;;;34.23;19.83;;;9.40;83.50;;;;;;5015003;28;20709;-87
2023/05/30 01:17:18;;;;;;;26.93;19.03;;;9.30;83.30;;;;;;5013937;28;20166;-86
2023/05/30 01:20:05;;;;;;;26.10;18.20;;;9.30;83.40;;;;;;5013742;28;20173;-87
2023/05/30 01:22:55;;;;;;;24.60;18.23;;;9.30;83.80;;;;;;5014952;28;20193;-87
2023/05/30 01:25:56;;;;;;;25.20;18.50;;;9.20;83.90;;;;;;5013663;28;20200;-87
2023/05/30 01:28:23;;;;;;;19.53;8.00;;;9.10;84.10;;;;;;5013591;28;20225;-87
2023/05/30 01:30:52;;;;;;;19.00;7.03;;;9.10;84.40;;;;;;5014702;28;20182;-86
2023/05/30 01:33:19;;;;;;;16.67;7.13;;;9.10;84.80;;;;;;5013245;28;20692;-86
2023/05/30 01:35:45;;;;;;;21.33;7.93;;;9.10;84.90;;;;;;5013425;28;20185;-87
2023/05/30 01:38:12;;;;;;;25.80;7.60;;;9.10;84.90;;;;;;5013375;28;20224;-87
2023/05/30 01:40:38;;;;;;;27.93;8.63;;;9.20;84.90;;;;;;5013260;28;20659;-87
2023/05/30 01:43:06;;;;;;;14.77;7.57;;;9.10;84.70;;;;;;5013163;28;20205;-87
2023/05/30 01:45:39;;;;;;;23.23;8.90;;;9.10;85.20;;;;;;5014421;28;20269;-86
2023/05/30 01:48:21;;;;;;;19.83;7.80;;;9.20;85.30;;;;;;5013111;28;20288;-87
2023/05/30 01:50:50;;;;;;;18.97;8.30;;;9.20;85.20;;;;;;5013271;28;20169;-87
2023/05/30 01:53:29;;;;;;;14.10;7.73;;;9.20;85.00;;;;;;5013099;28;20204;-86
2023/05/30 01:55:58;;;;;;;20.00;7.47;;;9.10;84.90;;;;;;5014385;28;20284;-87
2023/05/30 01:58:24;;;;;;;22.13;8.77;;;9.20;84.90;;;;;;5013101;28;20191;-87
2023/05/30 02:00:52;;;;;;;24.07;8.60;;;9.20;85.00;;;;;;5014147;28;20178;-86
2023/05/30 02:03:18;;;;;;;25.57;7.50;;;9.20;85.00;;;;;;5012996;28;20247;-87
2023/05/30 02:05:43;;;;;;;13.20;7.30;;;9.20;84.90;;;;;;5012951;28;20234;-87
2023/05/30 02:08:09;;;;;;;18.13;9.10;;;9.10;84.80;;;;;;5013079;28;20224;-87
2023/05/30 02:10:35;;;;;;;18.13;7.30;;;9.10;84.80;;;;;;5014250;28;20703;-87
2023/05/30 02:13:00;;;;;;;21.13;8.57;;;9.20;84.70;;;;;;5012075;28;20193;-87
2023/05/30 02:15:26;;;;;;;19.57;8.10;;;9.20;84.70;;;;;;5012739;28;20675;-87
2023/05/30 02:17:51;;;;;;;21.30;8.00;;;9.10;84.50;;;;;;5012800;28;20181;-87
2023/05/30 02:20:17;;;;;;;25.07;8.87;;;9.10;84.60;;;;;;5012773;28;20185;-87
2023/05/30 02:22:42;;;;;;;23.30;8.53;;;9.00;84.60;;;;;;5013132;28;20197;-87
2023/05/30 02:25:09;;;;;;;28.20;9.63;;;9.00;84.70;;;;;;5013728;28;20601;-87
2023/05/30 02:27:35;;;;;;;14.40;7.40;;;9.00;84.60;;;;;;5013577;28;20567;-86
2023/05/30 02:30:00;;;;;;;19.47;8.70;;;9.10;84.60;;;;;;5012462;28;20181;-87
2023/05/30 02:32:26;;;;;;;18.57;8.47;;;9.00;84.40;;;;;;5012101;28;20217;-87
2023/05/30 02:34:51;;;;;;;14.67;8.03;;;9.00;84.20;;;;;;5012419;28;20565;-87
2023/05/30 02:37:17;;;;;;;14.47;8.70;;;9.00;84.00;;;;;;5013588;28;20173;-87
2023/05/30 02:39:42;;;;;;;16.67;7.90;;;9.00;83.90;;;;;;5012478;28;20663;-87
2023/05/30 02:42:08;;;;;;;16.47;7.80;;;9.00;83.70;;;;;;5012218;28;20672;-87
2023/05/30 02:44:33;;;;;;;17.07;8.50;;;8.90;83.50;;;;;;5013772;28;20654;-86
2023/05/30 02:46:59;;;;;;;18.67;8.37;;;8.90;83.30;;;;;;5012258;28;20192;-86
2023/05/30 02:49:25;;;;;;;22.00;9.20;;;8.90;83.20;;;;;;5012221;28;20211;-86
2023/05/30 02:51:50;;;;;;;21.17;9.60;;;8.90;83.30;;;;;;5012150;28;20721;-86
2023/05/30 02:54:16;;;;;;;19.83;8.73;;;8.90;83.50;;;;;;5012190;28;20674;-86
2023/05/30 02:56:41;;;;;;;19.60;8.83;;;8.90;83.40;;;;;;5013657;28;20185;-87
2023/05/30 02:59:07;;;;;;;20.90;9.20;;;8.90;83.20;;;;;;5013393;28;20263;-87
2023/05/30 03:01:32;;;;;;;23.47;11.10;;;9.00;83.20;;;;;;5012112;28;20197;-87
2023/05/30 03:03:58;;;;;;;19.30;8.47;;;9.10;83.80;;;;;;5013405;28;20285;-87
2023/05/30 03:06:24;;;;;;;21.33;8.40;;;9.20;83.90;;;;;;5012104;28;20193;-87
2023/05/30 03:08:58;;;;;;;19.43;8.50;;;9.10;84.00;;;;;;5013566;28;20193;-87
2023/05/30 03:11:24;;;;;;;24.60;18.47;;;9.00;84.10;;;;;;5012360;28;20200;-87
2023/05/30 03:13:50;;;;;;;27.60;18.23;;;9.00;84.20;;;;;;5012943;28;20177;-87
2023/05/30 03:16:16;;;;;;;25.50;16.40;;;9.00;84.20;;;;;;5013596;28;20594;-87
2023/05/30 03:18:41;;;;;;;27.73;15.50;;;9.10;84.40;;;;;;5013575;28;20178;-87
2023/05/30 03:21:08;;;;;;;34.97;16.20;;;9.10;84.50;;;;;;5011896;28;20232;-87
2023/05/30 03:23:34;;;;;;;28.17;15.43;;;9.20;84.60;;;;;;5014185;28;20690;-87
2023/05/30 03:25:59;;;;;;;29.43;15.37;;;9.20;84.70;;;;;;5016961;28;20205;-87
2023/05/30 03:28:25;;;;;;;25.80;14.37;;;9.20;84.90;;;;;;5015612;28;20241;-87
2023/05/30 03:30:51;;;;;;;24.03;14.60;;;9.20;84.90;;;;;;5015613;28;20548;-87
2023/05/30 03:33:17;;;;;;;29.40;14.30;;;9.30;85.00;;;;;;5015598;28;20209;-87
2023/05/30 03:35:42;;;;;;;20.47;8.00;;;9.30;85.20;;;;;;5015629;28;20178;-87
2023/05/30 03:38:08;;;;;;;21.50;8.50;;;9.40;85.60;;;;;;5016960;28;20307;-87
2023/05/30 03:40:33;;;;;;;23.30;8.93;;;9.40;85.70;;;;;;5016718;28;20185;-87
2023/05/30 03:42:59;;;;;;;24.03;7.93;;;9.40;85.60;;;;;;5015517;28;20240;-87
2023/05/30 03:45:24;;;;;;;21.63;7.30;;;9.50;85.80;;;;;;5015439;28;20685;-87
2023/05/30 03:47:50;;;;;;;22.53;7.60;;;9.50;85.90;;;;;;5015313;28;20204;-87
2023/05/30 03:50:16;;;;;;;20.40;7.47;;;9.60;86.00;;;;;;5016504;28;20185;-87
2023/05/30 03:52:41;;;;;;;26.27;8.43;;;9.60;86.00;;;;;;5015266;28;20571;-87
2023/05/30 03:55:07;;;;;;;20.70;7.87;;;9.70;86.20;;;;;;5015335;28;20188;-87
2023/05/30 03:57:33;;;;;;;18.80;7.73;;;9.70;86.30;;;;;;5015185;28;20231;-87
2023/05/30 03:59:58;;;;;;;24.63;7.73;;;9.80;86.40;;;;;;5016440;28;20184;-87
2023/05/30 04:02:24;;;;;;;24.63;8.37;;;9.90;86.50;;;;;;5015133;28;20275;-87
2023/05/30 04:04:49;;;;;;;17.70;7.17;;;9.90;86.40;;;;;;5015200;28;20220;-87
2023/05/30 04:07:15;;;;;;;27.50;7.80;;;9.90;86.60;;;;;;5015098;28;20177;-87
2023/05/30 04:09:41;;;;;;;29.20;7.83;;;9.90;86.70;;;;;;5014973;28;20170;-87
2023/05/30 04:12:07;;;;;;;20.13;7.80;;;10.00;86.80;;;;;;5014888;28;20763;-87
2023/05/30 04:14:32;;;;;;;19.30;7.30;;;10.00;86.90;;;;;;5016252;28;20181;-87
2023/05/30 04:16:58;;;;;;;23.50;7.53;;;10.00;87.00;;;;;;5014763;28;20544;-85
2023/05/30 04:19:23;;;;;;;28.80;8.60;;;10.10;87.00;;;;;;5015975;28;20177;-86
2023/05/30 04:21:49;;;;;;;28.60;7.33;;;10.10;87.00;;;;;;5015778;28;20197;-86
2023/05/30 04:24:15;;;;;;;21.40;7.60;;;10.20;87.00;;;;;;5014739;28;20178;-86
2023/05/30 04:26:41;;;;;;;20.43;6.87;;;10.10;87.00;;;;;;5014749;28;20177;-86
2023/05/30 04:29:08;;;;;;;17.50;6.33;;;10.30;87.20;;;;;;5015748;28;20300;-86
2023/05/30 04:31:33;;;;;;;27.73;8.20;;;10.30;87.10;;;;;;5014273;28;20208;-86
2023/05/30 04:33:59;;;;;;;20.20;8.30;;;10.40;87.10;;;;;;5015861;28;20162;-86
2023/05/30 04:36:27;;;;;;;22.47;8.17;;;10.40;87.10;;;;;;5013757;28;20249;-87
2023/05/30 04:38:52;;;;;;;25.83;8.03;;;10.50;87.00;;;;;;5014333;28;20173;-87
2023/05/30 04:41:20;;;;;;;18.53;7.00;;;10.50;87.00;;;;;;5014375;28;20195;-87
2023/05/30 04:43:52;;;;;;;17.03;6.80;;;10.50;87.10;;;;;;5014363;28;20643;-87
2023/05/30 04:46:21;;;;;;;22.60;8.07;;;10.50;87.10;;;;;;5015563;28;20224;-87
2023/05/30 04:48:51;;;;;;;26.67;7.90;;;10.50;87.00;;;;;;5014191;28;20613;-86
2023/05/30 04:51:17;;;;;;;23.83;8.30;;;10.60;87.00;;;;;;5015662;28;20750;-87
2023/05/30 04:53:42;;;;;;;17.73;6.60;;;10.60;86.90;;;;;;5014204;28;20178;-87
2023/05/30 04:56:08;;;;;;;21.70;7.67;;;10.70;86.90;;;;;;5015359;28;20188;-87
2023/05/30 04:58:33;;;;;;;20.17;7.70;;;10.80;86.90;;;;;;5014125;28;20267;-87
2023/05/30 05:00:59;;;;;;;26.20;8.57;;;10.90;86.80;;;;;;5014062;28;20286;-87
2023/05/30 05:03:25;;;;;;;20.57;7.70;;;10.90;86.60;;;;;;5013924;28;20743;-87
2023/05/30 05:05:50;;;;;;;23.73;8.07;;;11.00;86.60;;;;;;5013832;28;20185;-86
2023/05/30 05:08:16;;;;;;;16.57;7.20;;;11.00;86.60;;;;;;5013911;28;20201;-87
2023/05/30 05:10:41;;;;;;;22.53;7.33;;;11.00;86.60;;;;;;5013886;28;20173;-86
2023/05/30 05:13:07;;;;;;;30.10;7.90;;;11.10;86.60;;;;;;5015301;28;20671;-87
2023/05/30 05:15:32;;;;;;;18.00;7.80;;;11.20;86.60;;;;;;5014959;28;20170;-86
2023/05/30 05:17:58;;;;;;;22.43;7.43;;;11.20;86.40;;;;;;5013653;28;20389;-87
2023/05/30 05:20:24;;;;;;;19.07;7.20;;;11.10;86.30;;;;;;5013860;28;20178;-87
2023/05/30 05:22:50;;;;;;;22.03;7.77;;;11.20;86.20;;;;;;5014799;28;20197;-87
2023/05/30 05:25:16;;;;;;;27.27;7.73;;;11.20;86.30;;;;;;5013668;28;20178;-87
2023/05/30 05:27:42;;;;;;;23.30;7.87;;;11.30;86.30;;;;;;5014818;28;20224;-87
2023/05/30 05:30:08;;;;;;;24.70;14.50;;;11.30;86.60;;;;;;5013658;28;20181;-87
2023/05/30 05:32:36;;;;;;;25.57;14.63;;;11.40;86.50;;;;;;5013195;28;20398;-87
2023/05/30 05:35:02;;;;;;;22.73;14.63;;;11.40;86.40;;;;;;5013420;28;20670;-87
2023/05/30 05:37:28;;;;;;;25.70;14.33;;;11.30;86.40;;;;;;5014688;28;20172;-87
2023/05/30 05:39:53;;;;;;;22.70;14.03;;;11.40;86.50;;;;;;5013395;28;20182;-87
2023/05/30 05:42:19;;;;;;;25.97;14.33;;;11.40;86.40;;;;;;5014455;28;20739;-87
2023/05/30 05:44:44;;;;;;;20.77;13.77;;;11.40;86.30;;;;;;5013453;28;20539;-87
2023/05/30 05:47:10;;;;;;;31.50;13.60;;;11.50;86.40;;;;;;5012286;28;20227;-87
2023/05/30 05:49:35;;;;;;;25.63;8.07;;;11.60;86.20;;;;;;5014297;28;20220;-87
2023/05/30 05:52:01;;;;;;;22.27;8.47;;;11.50;86.10;;;;;;5013044;28;20201;-87
2023/05/30 05:54:26;;;;;;;24.63;8.43;;;11.60;86.10;;;;;;5013268;28;20178;-87
2023/05/30 05:56:52;;;;;;;20.13;8.53;;;11.60;86.20;;;;;;5013090;28;20212;-87
2023/05/30 05:59:17;;;;;;;25.00;8.10;;;11.60;86.00;;;;;;5012905;28;20208;-87
2023/05/30 06:01:43;;;;;;;24.50;9.10;;;11.50;85.90;;;;;;5014044;28;20236;-87
2023/05/30 06:04:12;;;;;;;26.93;9.37;;;11.60;86.00;;;;;;5012889;28;20177;-87
2023/05/30 06:06:38;;;;;;;22.43;8.10;;;11.60;85.80;;;;;;5012887;28;20320;-87
2023/05/30 06:09:04;;;;;;;18.07;7.70;;;11.60;85.80;;;;;;5012728;28;20197;-87
2023/05/30 06:11:30;;;;;;;24.47;7.90;;;11.60;85.80;;;;;;5014083;28;20200;-87
2023/05/30 06:13:55;;;;;;;26.20;8.47;;;11.70;85.70;;;;;;5012785;28;20177;-87
2023/05/30 06:16:21;;;;;;;21.83;6.97;;;11.70;85.60;;;;;;5012676;28;20184;-88
2023/05/30 06:18:46;;;;;;;18.10;7.97;;;11.80;85.60;;;;;;5013868;28;20177;-87
2023/05/30 06:21:12;;;;;;;13.90;6.93;;;11.90;85.60;;;;;;5012594;28;20239;-87
2023/05/30 06:23:37;;;;;;;19.07;7.63;;;11.90;85.30;;;;;;5012589;28;20177;-88
2023/05/30 06:26:03;;;;;;;18.83;7.93;;;12.00;85.10;;;;;;5012588;28;20178;-87
2023/05/30 06:28:28;;;;;;;20.33;7.97;;;12.00;85.00;;;;;;5012394;28;20212;-87
2023/05/30 06:30:54;;;;;;;21.77;7.33;;;12.00;84.50;;;;;;5013032;28;20217;-87
2023/05/30 06:33:20;;;;;;;22.00;8.33;;;12.00;84.60;;;;;;5012353;28;20304;-87
2023/05/30 06:35:46;;;;;;;14.83;7.90;;;11.90;84.60;;;;;;5012365;28;20181;-87
2023/05/30 06:38:12;;;;;;;11.93;8.00;;;12.00;84.60;;;;;;5012360;28;20673;-87
2023/05/30 06:40:38;;;;;;;16.90;7.50;;;12.00;84.60;;;;;;5012330;28;20310;-87
2023/05/30 06:43:03;;;;;;;16.77;7.57;;;12.00;84.50;;;;;;5012609;28;20682;-87
2023/05/30 06:45:29;;;;;;;17.27;7.30;;;12.10;84.60;;;;;;5013655;28;20177;-87
2023/05/30 06:47:55;;;;;;;13.03;7.40;;;12.00;84.00;;;;;;5012296;28;20217;-87
2023/05/30 06:50:20;;;;;;;17.47;7.50;;;12.00;84.00;;;;;;5012462;28;20173;-87
2023/05/30 06:52:46;;;;;;;20.87;8.17;;;12.00;84.20;;;;;;5012306;28;20197;-87
2023/05/30 06:55:11;;;;;;;16.27;7.37;;;12.10;84.30;;;;;;5013512;28;20161;-87
2023/05/30 06:57:37;;;;;;;13.43;7.80;;;12.10;84.10;;;;;;5012190;28;20178;-87
2023/05/30 07:00:04;;;;;;;17.37;7.87;;;12.10;84.10;;;;;;5015674;28;20173;-87
2023/05/30 07:02:29;;;;;;;12.97;7.30;;;12.20;84.00;;;;;;5016179;28;20204;-87
2023/05/30 07:04:55;;;;;;;14.23;7.37;;;12.20;83.80;;;;;;5017428;28;20173;-87
2023/05/30 07:07:20;;;;;;;14.10;8.30;;;12.20;83.70;;;;;;5016022;28;20184;-87
2023/05/30 07:09:46;;;;;;;19.17;8.70;;;12.20;83.60;;;;;;5016104;28;20583;-87
2023/05/30 07:12:12;;;;;;;13.63;7.97;;;12.20;83.60;;;;;;5015943;28;20201;-87
2023/05/30 07:14:37;;;;;;;16.00;9.33;;;12.20;83.70;;;;;;5016091;28;20188;-87
2023/05/30 07:17:06;;;;;;;21.23;7.80;;;12.20;83.70;;;;;;5016039;28;20177;-87
2023/05/30 07:19:32;;;;;;;20.73;8.27;;;12.20;83.50;;;;;;5015975;28;20594;-87
2023/05/30 07:21:57;;;;;;;18.60;8.93;;;12.30;83.50;;;;;;5016290;28;20220;-88
2023/05/30 07:24:23;;;;;;;17.17;8.00;;;12.40;83.60;;;;;;5015979;28;20185;-87
2023/05/30 07:26:51;;;;;;;14.80;7.83;;;12.40;83.40;;;;;;5015973;28;20185;-87
2023/05/30 07:29:17;;;;;;;16.60;7.37;;;12.50;83.20;;;;;;5015885;28;20557;-88
2023/05/30 07:31:43;;;;;;;17.07;7.57;;;12.60;83.20;;;;;;5015700;28;20209;-86
2023/05/30 07:34:09;;;;;;;19.30;7.77;;;12.60;83.00;;;;;;5015815;28;20182;-87
2023/05/30 07:36:34;;;;;;;16.07;7.90;;;12.70;82.60;;;;;;5016987;28;20200;-88
2023/05/30 07:39:00;;;;;;;17.10;8.27;;;12.70;82.40;;;;;;5015620;28;20599;-88
2023/05/30 07:41:26;;;;;;;16.60;8.53;;;12.80;82.10;;;;;;5015468;28;20573;-88
2023/05/30 07:43:51;;;;;;;15.50;7.83;;;12.70;82.00;;;;;;5016866;28;20209;-88
2023/05/30 07:46:18;;;;;;;15.50;7.90;;;12.70;82.00;;;;;;5015484;28;20215;-88
2023/05/30 07:48:43;;;;;;;15.77;7.43;;;12.70;81.60;;;;;;5015301;28;20208;-88
2023/05/30 07:51:10;;;;;;;17.17;7.20;;;12.70;81.80;;;;;;5016465;28;20177;-88
2023/05/30 07:53:36;;;;;;;11.80;6.80;;;12.80;82.00;;;;;;5016477;28;20177;-87
2023/05/30 07:56:02;;;;;;;11.27;6.53;;;12.90;81.50;;;;;;5015276;28;20178;-88
2023/05/30 07:58:28;;;;;;;15.23;7.17;;;12.90;81.40;;;;;;5015311;28;20188;-87
2023/05/30 08:00:53;;;;;;;19.13;7.60;;;12.80;80.90;;;;;;5015197;28;20185;-88
2023/05/30 08:03:19;;;;;;;13.50;8.17;;;12.80;81.20;;;;;;5016214;28;20743;-88
2023/05/30 08:05:50;;;;;;;16.40;7.97;;;12.90;81.20;;;;;;5015042;28;20181;-89
2023/05/30 08:08:17;;;;;;;16.40;14.90;;;12.90;81.50;;;;;;5014972;28;20205;-89
2023/05/30 08:10:42;;;;;;;18.73;14.93;;;12.90;81.60;;;;;;5013854;28;20169;-89
2023/05/30 08:13:08;;;;;;;15.83;14.13;;;12.90;81.50;;;;;;5015135;28;20201;-89
2023/05/30 08:15:33;;;;;;;16.00;14.43;;;13.00;81.00;;;;;;5015761;28;20173;-89
2023/05/30 08:18:00;;;;;;;16.60;15.10;;;13.00;80.90;;;;;;5015988;28;20181;-89
2023/05/30 08:20:26;;;;;;;15.50;13.80;;;13.00;81.20;;;;;;5016053;28;20671;-89
2023/05/30 08:22:51;;;;;;;18.10;14.17;;;13.10;81.20;;;;;;5014698;28;20197;-89
2023/05/30 08:25:23;;;;;;;16.87;15.10;;;13.10;81.30;;;;;;5014660;28;20268;-89
2023/05/30 08:27:53;;;;;;;18.57;16.87;;;13.10;80.60;;;;;;5014730;28;20547;-88
2023/05/30 08:30:26;;;;;;;18.87;15.67;;;13.10;80.60;;;;;;5014713;28;20551;-88
2023/05/30 08:32:52;;;;;;;26.77;17.73;;;13.00;80.80;;;;;;5014603;28;20240;-89
2023/05/30 08:35:17;;;;;;;18.00;14.90;;;13.00;81.50;;;;;;5014487;28;20239;-89
2023/05/30 08:37:43;;;;;;;19.73;16.63;;;13.00;81.80;;;;;;5015797;28;20161;-88
2023/05/30 08:40:12;;;;;;;22.50;20.10;;;13.00;81.60;;;;;;5014856;28;20196;-88
2023/05/30 08:42:38;;;;;;;22.63;19.67;;;12.90;81.20;;;;;;5015503;28;20228;-89
2023/05/30 08:45:05;;;;;;;17.47;8.50;;;12.90;81.60;;;;;;5014595;28;20192;-88
2023/05/30 08:47:31;;;;;;;14.93;7.93;;;12.90;81.90;;;;;;5014279;28;20224;-89
2023/05/30 08:49:58;;;;;;;19.20;7.97;;;12.90;81.70;;;;;;5014340;28;20181;-89
2023/05/30 08:52:28;;;;;;;14.43;8.07;;;12.90;81.70;;;;;;5015429;28;20240;-90
2023/05/30 08:55:05;;;;;;;15.53;8.17;;;13.00;81.80;;;;;;5014540;28;20536;-90
2023/05/30 08:57:39;;;;;;;18.27;7.77;;;13.00;81.50;;;;;;5015322;28;20157;-89
2023/05/30 09:00:09;;;;;;;14.93;7.60;;;13.00;81.50;;;;;;5014152;28;20160;-90
2023/05/30 09:02:36;;;;;;;11.63;7.20;;;13.00;81.20;;;;;;5015114;28;20200;-90
2023/05/30 09:05:03;;;;;;;20.50;8.23;;;13.00;81.10;;;;;;5014274;28;20177;-90
2023/05/30 09:07:29;;;;;;;10.70;7.50;;;13.10;81.10;;;;;;5014332;28;20177;-89
2023/05/30 09:09:55;;;;;;;12.30;7.67;;;13.00;80.70;;;;;;5014383;28;20185;-90
2023/05/30 09:12:22;;;;;;;23.80;7.43;;;13.00;81.00;;;;;;5014308;28;20592;-88
2023/05/30 09:14:47;;;;;;;15.57;6.90;;;13.20;81.20;;;;;;5013864;28;20174;-90
2023/05/30 09:17:13;;;;;;;11.83;7.37;;;13.30;81.20;;;;;;5015502;28;20225;-90
2023/05/30 09:19:39;;;;;;;15.57;6.80;;;13.30;81.00;;;;;;5015162;28;20154;-88
2023/05/30 09:22:06;;;;;;;11.60;6.97;;;13.40;80.40;;;;;;5013351;28;20288;-89
2023/05/30 09:25:01;;;;;;;11.63;7.17;;;13.60;80.50;;;;;;5015444;28;20600;-86
2023/05/30 09:27:28;;;;;;;19.97;8.60;;;13.70;79.80;;;;;;5014798;28;20154;-85
2023/05/30 09:29:55;;;;;;;15.20;8.43;;;13.70;79.40;;;;;;5013646;28;20279;-86
2023/05/30 09:32:28;;;;;;;13.40;7.53;;;13.70;79.50;;;;;;5013579;28;20213;-86
2023/05/30 09:34:56;;;;;;;12.37;8.20;;;13.70;79.50;;;;;;5014367;28;20561;-86
2023/05/30 09:37:23;;;;;;;13.00;8.30;;;13.70;79.40;;;;;;5014798;28;20252;-87
2023/05/30 09:40:08;;;;;;;10.37;8.13;;;13.70;79.30;;;;;;5014071;28;20181;-88
2023/05/30 09:42:50;;;;;;;12.80;7.13;;;13.70;79.00;;;;;;5013212;28;20196;-87
2023/05/30 09:45:19;;;;;;;10.60;7.00;;;13.70;79.10;;;;;;5013193;28;20177;-87
2023/05/30 09:47:47;;;;;;;8.47;7.53;;;13.80;79.00;;;;;;5013035;28;20201;-88
2023/05/30 09:50:18;;;;;;;10.43;7.70;;;13.90;78.20;;;;;;5014402;28;20181;-88
2023/05/30 09:52:51;;;;;;;10.50;8.13;;;14.10;77.70;;;;;;5014535;28;20560;-89
2023/05/30 09:55:18;;;;;;;9.40;7.43;;;14.10;77.80;;;;;;5014000;28;20620;-89
2023/05/30 09:57:48;;;;;;;8.60;7.73;;;14.20;77.80;;;;;;5013220;28;20177;-87
2023/05/30 10:00:22;;;;;;;11.33;7.70;;;14.10;76.80;;;;;;5012969;28;20180;-89
2023/05/30 10:02:56;;;;;;;9.90;8.40;;;14.20;77.90;;;;;;5014202;28;20186;-88
2023/05/30 10:05:24;;;;;;;10.90;7.73;;;14.30;77.70;;;;;;5012992;28;20169;-87
2023/05/30 10:07:51;;;;;;;10.47;8.30;;;14.30;76.50;;;;;;5013620;28;20201;-86
2023/05/30 10:10:18;;;;;;;17.88;9.77;;;14.60;77.10;;;;;;5012781;28;20177;-87
2023/05/30 10:12:51;;;;;;;16.42;9.20;;;14.60;76.60;;;;;;5012693;28;20244;-87
2023/05/30 10:15:19;;;;;;;14.43;9.93;;;14.60;75.70;;;;;;5012897;28;20165;-87
2023/05/30 10:17:55;;;;;;;15.90;10.30;;;14.40;75.20;;;;;;5012883;28;20184;-86
2023/05/30 10:20:24;;;;;;;10.30;9.17;;;14.30;76.00;;;;;;5014000;28;20572;-87
2023/05/30 10:22:54;;;;;;;12.53;9.07;;;14.20;75.80;;;;;;5012721;28;20616;-87
2023/05/30 10:25:21;;;;;;;10.60;9.10;;;14.20;75.90;;;;;;5014433;28;20525;-88
2023/05/30 10:27:51;;;;;;;17.83;9.17;;;14.30;75.90;;;;;;5014117;28;20190;-88
2023/05/30 10:30:25;;;;;;;10.17;8.93;;;14.20;75.50;;;;;;5012896;28;20678;-88
2023/05/30 10:33:03;;;;;;;13.40;9.93;;;14.30;76.50;;;;;;5011877;28;20239;-87
2023/05/30 10:35:30;;;;;;;14.83;9.07;;;14.30;75.90;;;;;;5012513;28;20647;-87
2023/05/30 10:37:56;;;;;;;15.07;10.43;;;14.40;76.00;;;;;;5012358;28;20208;-88
2023/05/30 10:40:45;;;;;;;13.53;10.13;;;14.50;75.00;;;;;;5012421;28;20651;-88
2023/05/30 10:43:52;;;;;;;14.07;11.50;;;14.70;75.30;;;;;;5013485;28;20564;-89
2023/05/30 10:46:25;;;;;;;11.70;10.35;;;14.80;75.00;;;;;;4991768;28;20248;-87
2023/05/30 10:48:58;;;;;;;14.38;11.23;;;14.90;74.60;;;;;;5010362;28;20209;-86
2023/05/30 10:51:24;;;;;;;14.65;11.73;;;15.00;74.60;;;;;;5013750;28;20189;-87
2023/05/30 10:53:50;;;;;;;15.77;11.35;;;14.90;74.30;;;;;;5013504;28;20644;-86
2023/05/30 10:56:34;;;;;;;13.90;10.93;;;14.80;74.60;;;;;;5014061;28;20208;-85
2023/05/30 10:59:01;;;;;;;19.80;11.33;;;14.70;74.20;;;;;;5013382;28;20572;-86
2023/05/30 11:01:33;;;;;;;14.73;11.73;;;14.50;74.70;;;;;;5013709;28;20204;-86
2023/05/30 11:04:11;;;;;;;14.40;10.53;;;14.40;75.70;;;;;;5013362;28;20176;-86
2023/05/30 11:06:46;;;;;;;15.60;10.53;;;14.30;75.40;;;;;;5013447;28;20662;-86
2023/05/30 11:09:16;;;;;;;12.27;10.50;;;14.30;74.80;;;;;;5012598;28;20241;-86
2023/05/30 11:11:47;;;;;;;15.23;10.93;;;14.40;75.20;;;;;;5013401;28;20315;-87
2023/05/30 11:14:14;;;;;;;16.15;11.05;;;14.60;75.20;;;;;;5012502;28;20205;-87
2023/05/30 11:16:55;;;;;;;12.45;11.25;;;14.70;74.70;;;;;;5012689;28;20173;-87
2023/05/30 11:19:33;;;;;;;13.07;11.57;;;14.80;74.00;;;;;;5013388;28;20216;-87
2023/05/30 11:22:00;;;;;;;14.67;11.17;;;14.80;73.80;;;;;;5013128;28;20202;-86
2023/05/30 11:24:28;;;;;;;12.32;11.02;;;15.00;74.90;;;;;;5012090;28;20184;-86
2023/05/30 11:26:55;;;;;;;17.13;11.80;;;15.10;74.30;;;;;;5013375;28;20697;-86
2023/05/30 11:29:44;;;;;;;14.48;12.93;;;15.10;74.20;;;;;;5012076;28;20259;-87
2023/05/30 11:32:11;;;;;;;13.02;11.82;;;15.10;73.10;;;;;;5013090;28;20231;-86
2023/05/30 11:34:37;;;;;;;20.55;13.20;;;14.90;73.20;;;;;;5012134;28;20272;-86
2023/05/30 11:37:04;;;;;;;14.65;12.98;;;14.90;73.10;;;;;;5012073;28;20694;-87
2023/05/30 11:39:33;;;;;;;16.48;13.13;;;14.80;72.50;;;;;;5011916;28;20192;-87
2023/05/30 11:42:00;;;;;;;17.42;13.10;;;14.80;73.40;;;;;;5011832;28;20212;-87
2023/05/30 11:44:27;;;;;;;18.93;12.53;;;15.00;73.80;;;;;;5012429;28;20235;-87
2023/05/30 11:47:06;;;;;;;12.93;11.47;;;15.10;74.10;;;;;;5016733;28;20184;-87
2023/05/30 11:49:32;;;;;;;20.20;10.95;;;15.10;73.40;;;;;;5015482;28;20201;-87
2023/05/30 11:51:58;;;;;;;12.55;11.25;;;15.20;73.70;;;;;;5016016;28;20201;-87
2023/05/30 11:54:24;;;;;;;16.33;11.50;;;15.40;73.20;;;;;;5016594;28;20162;-87
2023/05/30 11:56:50;;;;;;;13.30;12.10;;;15.40;72.90;;;;;;5015267;28;20276;-87
2023/05/30 11:59:20;;;;;;;13.50;11.20;;;15.80;72.70;;;;;;5016524;28;20308;-88
2023/05/30 12:01:59;;;;;;;16.00;12.63;;;15.90;71.60;;;;;;5015283;28;20247;-88
2023/05/30 12:04:32;;;;;;;14.80;12.80;;;16.10;70.90;;;;;;5015294;28;20597;-88
2023/05/30 12:07:00;;;;;;;13.90;12.50;;;16.20;71.20;;;;;;5015994;28;20239;-87
2023/05/30 12:09:27;;;;;;;14.98;13.50;;;16.30;69.90;;;;;;5015646;28;20202;-87
2023/05/30 12:11:58;;;;;;;14.05;12.70;;;16.10;70.30;;;;;;5014911;28;20255;-86
2023/05/30 12:14:28;;;;;;;14.50;13.02;;;16.00;71.90;;;;;;5016564;28;20650;-88
2023/05/30 12:16:57;;;;;;;18.30;12.88;;;15.90;71.50;;;;;;5014808;28;20205;-88
2023/05/30 12:19:30;;;;;;;17.17;13.52;;;15.80;71.10;;;;;;5015843;28;20216;-87
2023/05/30 12:21:56;;;;;;;14.93;13.23;;;15.80;70.90;;;;;;5014861;28;20193;-88
2023/05/30 12:24:25;;;;;;;15.40;12.88;;;15.80;71.10;;;;;;5015505;28;20178;-86
2023/05/30 12:26:57;;;;;;;16.00;13.23;;;15.70;70.90;;;;;;5015180;28;20184;-88
2023/05/30 12:29:24;;;;;;;14.98;13.43;;;15.60;71.60;;;;;;5015095;28;20236;-87
2023/05/30 12:31:51;;;;;;;15.98;13.40;;;15.60;71.10;;;;;;5015724;28;20297;-86
2023/05/30 12:34:17;;;;;;;12.90;11.57;;;15.60;71.50;;;;;;5015898;28;20248;-86
2023/05/30 12:36:42;;;;;;;15.30;13.65;;;15.80;72.40;;;;;;5014962;28;20272;-86
2023/05/30 12:39:08;;;;;;;13.77;12.38;;;15.80;70.30;;;;;;5014591;28;20173;-87
2023/05/30 12:41:40;;;;;;;16.45;13.68;;;16.00;71.10;;;;;;5014687;28;20196;-86
2023/05/30 12:44:16;;;;;;;16.95;15.02;;;16.30;70.90;;;;;;5014564;28;20181;-87